createdAt,value
2024-01-06T00:01:16.919Z,21.80
2024-01-06T00:03:44.387Z,21.80
2024-01-06T00:06:14.211Z,21.30
2024-01-06T00:08:41.403Z,22.10
2024-01-06T00:11:08.339Z,24.90
2024-01-06T00:13:35.263Z,21.10
2024-01-06T00:16:02.507Z,23.10
2024-01-06T00:18:29.558Z,27.10
2024-01-06T00:20:57.460Z,22.80
2024-01-06T00:23:24.775Z,21.00
2024-01-06T00:25:51.739Z,24.20
2024-01-06T00:28:18.591Z,23.20
2024-01-06T00:30:45.759Z,22.60
2024-01-06T00:33:13.977Z,22.00
2024-01-06T00:35:41.671Z,20.70
2024-01-06T00:38:08.530Z,22.90
2024-01-06T00:40:35.373Z,21.50
2024-01-06T00:43:02.289Z,21.70
2024-01-06T00:45:29.184Z,23.20
2024-01-06T00:47:56.290Z,22.40
2024-01-06T00:50:23.176Z,23.40
2024-01-06T00:52:53.582Z,22.40
2024-01-06T00:55:21.228Z,23.50
2024-01-06T00:57:48.180Z,23.90
2024-01-06T01:00:15.407Z,26.60
2024-01-06T01:02:42.461Z,26.60
2024-01-06T01:05:09.677Z,25.00
2024-01-06T01:07:37.082Z,25.20
2024-01-06T01:10:04.405Z,25.60
2024-01-06T01:12:31.457Z,29.50
2024-01-06T01:14:58.642Z,31.00
2024-01-06T01:17:26.227Z,31.30
2024-01-06T01:19:53.270Z,32.60
2024-01-06T01:22:20.208Z,33.10
2024-01-06T01:24:47.134Z,37.90
2024-01-06T01:27:14.275Z,30.90
2024-01-06T01:29:41.210Z,29.80
2024-01-06T01:32:08.295Z,29.10
2024-01-06T01:34:35.907Z,27.40
2024-01-06T01:37:03.049Z,33.40
2024-01-06T01:39:30.008Z,28.30
2024-01-06T01:41:57.326Z,28.50
2024-01-06T01:44:24.243Z,27.50
2024-01-06T01:46:52.224Z,28.30
2024-01-06T01:49:19.240Z,28.80
2024-01-06T01:51:46.495Z,27.60
2024-01-06T01:54:13.497Z,26.60
2024-01-06T01:56:42.710Z,24.00
2024-01-06T01:59:13.434Z,26.90
2024-01-06T02:01:42.170Z,25.20
2024-01-06T02:04:09.940Z,25.40
2024-01-06T02:06:37.093Z,25.20
2024-01-06T02:09:04.085Z,24.70
2024-01-06T02:11:31.066Z,25.00
2024-01-06T02:13:58.111Z,26.10
2024-01-06T02:16:25.034Z,24.60
2024-01-06T02:18:52.041Z,26.30
2024-01-06T02:21:19.193Z,25.50
2024-01-06T02:23:46.064Z,26.90
2024-01-06T02:26:14.517Z,27.20
2024-01-06T02:28:41.999Z,24.80
2024-01-06T02:31:09.093Z,25.60
2024-01-06T02:33:36.068Z,25.60
2024-01-06T02:36:03.205Z,25.80
2024-01-06T02:38:30.136Z,24.90
2024-01-06T02:40:56.972Z,25.20
2024-01-06T02:43:24.661Z,25.00
2024-01-06T02:45:51.718Z,25.30
2024-01-06T02:48:18.831Z,25.20
2024-01-06T02:50:45.829Z,25.20
2024-01-06T02:53:13.966Z,25.70
2024-01-06T02:55:41.380Z,26.70
2024-01-06T02:58:08.241Z,26.90
2024-01-06T03:00:35.277Z,25.10
2024-01-06T03:03:02.313Z,25.60
2024-01-06T03:05:29.254Z,23.80
2024-01-06T03:07:56.150Z,25.40
2024-01-06T03:10:23.028Z,25.10
2024-01-06T03:12:49.986Z,23.80
2024-01-06T03:15:19.376Z,23.80
2024-01-06T03:17:46.293Z,24.80
2024-01-06T03:20:13.265Z,23.80
2024-01-06T03:22:40.143Z,23.30
2024-01-06T03:25:07.524Z,23.20
2024-01-06T03:27:34.757Z,23.60
2024-01-06T03:30:01.867Z,21.90
2024-01-06T03:32:29.836Z,24.50
2024-01-06T03:34:56.960Z,23.80
2024-01-06T03:37:23.961Z,24.80
2024-01-06T03:39:51.070Z,23.80
2024-01-06T03:42:17.939Z,25.90
2024-01-06T03:44:44.961Z,24.50
2024-01-06T03:47:11.836Z,22.40
2024-01-06T03:49:38.880Z,21.70
2024-01-06T03:52:06.357Z,23.30
2024-01-06T03:54:33.302Z,22.30
2024-01-06T03:57:00.192Z,23.00
2024-01-06T03:59:27.034Z,23.10
2024-01-06T04:01:53.925Z,22.60
2024-01-06T04:04:21.627Z,24.00
2024-01-06T04:06:48.724Z,25.20
2024-01-06T04:09:18.596Z,25.00
2024-01-06T04:11:46.049Z,24.90
2024-01-06T04:14:12.862Z,25.30
2024-01-06T04:16:39.930Z,26.50
2024-01-06T04:19:08.937Z,24.90
2024-01-06T04:21:35.953Z,27.20
2024-01-06T04:24:02.837Z,29.80
2024-01-06T04:26:29.650Z,27.50
2024-01-06T04:28:56.577Z,27.00
2024-01-06T04:31:23.604Z,26.90
2024-01-06T04:33:50.773Z,28.10
2024-01-06T04:36:17.818Z,26.00
2024-01-06T04:38:44.650Z,25.10
2024-01-06T04:41:11.569Z,25.50
2024-01-06T04:43:38.476Z,25.40
2024-01-06T04:46:05.309Z,24.60
2024-01-06T04:48:32.310Z,24.40
2024-01-06T04:50:59.529Z,24.70
2024-01-06T04:53:26.353Z,23.80
2024-01-06T04:55:53.280Z,23.00
2024-01-06T04:58:20.189Z,24.30
2024-01-06T05:00:47.436Z,25.00
2024-01-06T05:03:14.501Z,26.40
2024-01-06T05:05:41.460Z,24.70
2024-01-06T05:08:08.450Z,25.70
2024-01-06T05:10:35.299Z,25.50
2024-01-06T05:13:02.168Z,23.90
2024-01-06T05:15:29.174Z,24.00
2024-01-06T05:17:56.623Z,25.80
2024-01-06T05:20:24.157Z,26.50
2024-01-06T05:22:51.012Z,28.80
2024-01-06T05:25:18.025Z,28.90
2024-01-06T05:27:44.886Z,73.80
2024-01-06T05:30:12.397Z,47.80
2024-01-06T05:32:39.829Z,48.00
2024-01-06T05:35:07.398Z,39.90
2024-01-06T05:37:34.723Z,32.60
2024-01-06T05:40:04.976Z,27.50
2024-01-06T05:42:32.094Z,26.70
2024-01-06T05:44:59.038Z,24.60
2024-01-06T05:47:26.013Z,25.30
2024-01-06T05:49:52.957Z,24.50
2024-01-06T05:52:19.856Z,24.00
2024-01-06T05:54:46.909Z,25.30
2024-01-06T05:57:13.890Z,25.40
2024-01-06T05:59:41.742Z,25.10
2024-01-06T06:02:08.630Z,26.20
2024-01-06T06:04:35.604Z,27.20
2024-01-06T06:07:03.602Z,26.30
2024-01-06T06:09:30.679Z,28.40
2024-01-06T06:11:57.802Z,27.70
2024-01-06T06:14:27.491Z,27.20
2024-01-06T06:16:56.103Z,31.50
2024-01-06T06:19:23.058Z,31.30
2024-01-06T06:21:49.973Z,32.30
2024-01-06T06:24:16.858Z,32.60
2024-01-06T06:26:43.729Z,32.10
2024-01-06T06:29:10.603Z,34.20
2024-01-06T06:31:37.789Z,32.80
2024-01-06T06:34:08.690Z,31.60
2024-01-06T06:36:36.775Z,31.60
2024-01-06T06:39:05.491Z,34.10
2024-01-06T06:41:32.550Z,33.40
2024-01-06T06:43:59.537Z,31.30
2024-01-06T06:46:26.529Z,33.20
2024-01-06T06:48:53.368Z,32.60
2024-01-06T06:51:23.085Z,32.90
2024-01-06T06:53:51.282Z,32.10
2024-01-06T06:56:18.766Z,31.30
2024-01-06T06:58:45.674Z,31.10
2024-01-06T07:01:15.611Z,29.70
2024-01-06T07:03:42.934Z,30.20
2024-01-06T07:06:12.609Z,40.70
2024-01-06T07:08:39.693Z,142.90
2024-01-06T07:11:06.526Z,124.60
2024-01-06T07:13:33.472Z,61.10
2024-01-06T07:16:10.702Z,57.10
2024-01-06T07:18:42.997Z,40.40
2024-01-06T07:21:10.133Z,37.40
2024-01-06T07:23:36.971Z,34.50
2024-01-06T07:26:04.065Z,32.40
2024-01-06T07:28:30.959Z,32.90
2024-01-06T07:30:57.944Z,35.80
2024-01-06T07:33:26.258Z,34.80
2024-01-06T07:35:53.231Z,36.30
2024-01-06T07:38:20.761Z,32.70
2024-01-06T07:40:47.676Z,35.10
2024-01-06T07:43:16.521Z,35.80
2024-01-06T07:45:43.656Z,36.60
2024-01-06T07:48:10.743Z,38.20
2024-01-06T07:50:37.809Z,37.60
2024-01-06T07:53:04.815Z,38.30
2024-01-06T07:55:32.584Z,38.20
2024-01-06T07:57:59.598Z,37.30
2024-01-06T08:00:26.853Z,36.70
2024-01-06T08:02:53.704Z,33.60
2024-01-06T08:05:20.761Z,34.50
2024-01-06T08:07:47.670Z,32.40
2024-01-06T08:10:14.655Z,31.80
2024-01-06T08:12:41.585Z,34.00
2024-01-06T08:15:10.590Z,36.50
2024-01-06T08:17:38.709Z,36.90
2024-01-06T08:20:06.237Z,40.40
2024-01-06T08:22:33.114Z,39.80
2024-01-06T08:25:00.171Z,45.60
2024-01-06T08:27:28.460Z,42.10
2024-01-06T08:29:55.482Z,41.50
2024-01-06T08:32:22.275Z,42.70
2024-01-06T08:34:49.286Z,41.20
2024-01-06T08:37:16.304Z,42.80
2024-01-06T08:39:43.179Z,44.40
2024-01-06T08:42:10.173Z,44.60
2024-01-06T08:44:37.020Z,69.70
2024-01-06T08:47:04.185Z,87.00
2024-01-06T08:49:31.615Z,68.20
2024-01-06T08:51:59.388Z,91.40
2024-01-06T08:54:26.496Z,60.20
2024-01-06T08:56:53.382Z,40.70
2024-01-06T08:59:21.450Z,34.50
2024-01-06T09:01:50.471Z,34.00
2024-01-06T09:04:18.127Z,30.50
2024-01-06T09:06:45.138Z,32.10
2024-01-06T09:09:12.177Z,32.80
2024-01-06T09:11:40.053Z,32.20
2024-01-06T09:14:06.949Z,32.10
2024-01-06T09:16:33.825Z,33.70
2024-01-06T09:19:00.824Z,33.00
2024-01-06T09:21:27.850Z,32.90
2024-01-06T09:23:54.711Z,34.90
2024-01-06T09:26:21.585Z,35.80
2024-01-06T09:28:49.160Z,39.10
2024-01-06T09:31:16.211Z,38.70
2024-01-06T09:33:43.472Z,42.70
2024-01-06T09:36:13.540Z,46.70
2024-01-06T09:38:40.546Z,50.20
2024-01-06T09:41:07.584Z,54.00
2024-01-06T09:43:34.989Z,54.50
2024-01-06T09:46:33.180Z,48.70
2024-01-06T09:49:00.335Z,48.10
2024-01-06T09:51:28.598Z,51.30
2024-01-06T09:54:04.324Z,46.20
2024-01-06T09:56:31.394Z,44.00
2024-01-06T09:58:58.373Z,39.80
2024-01-06T10:01:25.842Z,35.60
2024-01-06T10:03:53.089Z,35.70
2024-01-06T10:06:21.643Z,34.50
2024-01-06T10:08:52.670Z,34.40
2024-01-06T10:11:22.330Z,29.40
2024-01-06T10:13:52.402Z,27.90
2024-01-06T10:16:20.472Z,27.40
2024-01-06T10:18:52.456Z,29.90
2024-01-06T10:21:23.678Z,29.00
2024-01-06T10:23:52.441Z,26.20
2024-01-06T10:26:19.636Z,30.40
2024-01-06T10:28:46.568Z,28.30
2024-01-06T10:31:15.242Z,29.60
2024-01-06T10:33:42.582Z,29.70
2024-01-06T10:36:10.984Z,35.60
2024-01-06T10:38:37.815Z,34.80
2024-01-06T10:41:09.205Z,36.90
2024-01-06T10:43:39.445Z,40.40
2024-01-06T10:46:06.928Z,41.80
2024-01-06T10:48:36.232Z,44.10
2024-01-06T10:51:03.882Z,47.10
2024-01-06T10:53:31.829Z,45.90
2024-01-06T10:55:59.499Z,48.10
2024-01-06T10:58:26.989Z,49.10
2024-01-06T11:00:54.326Z,50.30
2024-01-06T11:03:23.321Z,55.10
2024-01-06T11:05:51.157Z,51.60
2024-01-06T11:08:21.760Z,49.40
2024-01-06T11:10:49.144Z,48.40
2024-01-06T11:13:22.051Z,47.00
2024-01-06T11:15:53.420Z,45.90
2024-01-06T11:18:40.393Z,44.70
2024-01-06T11:21:15.387Z,45.00
2024-01-06T11:23:42.548Z,46.50
2024-01-06T11:26:10.874Z,45.60
2024-01-06T11:28:47.393Z,52.30
2024-01-06T11:31:15.318Z,53.40
2024-01-06T11:33:46.034Z,50.50
2024-01-06T11:36:16.082Z,43.80
2024-01-06T11:38:43.000Z,46.00
2024-01-06T11:41:12.760Z,34.50
2024-01-06T11:43:41.843Z,36.60
2024-01-06T11:46:09.705Z,32.00
2024-01-06T11:48:38.038Z,32.60
2024-01-06T11:51:05.982Z,30.90
2024-01-06T11:53:33.533Z,30.20
2024-01-06T11:56:01.646Z,32.40
2024-01-06T11:58:29.966Z,28.90
2024-01-06T12:00:58.806Z,28.90
2024-01-06T12:03:27.844Z,29.00
2024-01-06T12:06:04.180Z,29.00
2024-01-06T12:08:31.271Z,28.70
2024-01-06T12:11:06.435Z,32.20
2024-01-06T12:13:33.629Z,54.20
2024-01-06T12:16:03.647Z,30.80
2024-01-06T12:18:30.966Z,29.70
2024-01-06T12:20:57.854Z,47.70
2024-01-06T12:23:26.860Z,28.70
2024-01-06T12:25:54.939Z,28.30
2024-01-06T12:28:21.859Z,28.20
2024-01-06T12:30:49.942Z,29.10
2024-01-06T12:33:17.185Z,28.90
2024-01-06T12:35:44.899Z,29.70
2024-01-06T12:38:11.876Z,27.00
2024-01-06T12:40:39.217Z,28.20
2024-01-06T12:43:07.148Z,27.30
2024-01-06T12:45:34.392Z,28.00
2024-01-06T12:48:01.558Z,27.10
2024-01-06T12:50:28.491Z,27.40
2024-01-06T12:52:55.523Z,26.50
2024-01-06T12:55:22.405Z,26.40
2024-01-06T12:57:49.374Z,26.70
2024-01-06T13:00:17.667Z,29.20
2024-01-06T13:02:44.588Z,27.80
2024-01-06T13:05:11.639Z,24.30
2024-01-06T13:07:39.535Z,23.30
2024-01-06T13:10:07.019Z,24.50
2024-01-06T13:12:34.048Z,22.40
2024-01-06T13:15:02.265Z,22.20
2024-01-06T13:17:29.426Z,22.90
2024-01-06T13:19:57.714Z,21.90
2024-01-06T13:22:24.741Z,20.90
2024-01-06T13:24:54.221Z,22.00
2024-01-06T13:27:22.155Z,21.70
2024-01-06T13:29:49.906Z,20.00
2024-01-06T13:32:16.911Z,20.70
2024-01-06T13:34:43.908Z,22.40
2024-01-06T13:37:11.895Z,19.30
2024-01-06T13:39:39.011Z,19.00
2024-01-06T13:42:06.423Z,21.20
2024-01-06T13:44:33.348Z,22.00
2024-01-06T13:47:00.313Z,24.30
2024-01-06T13:49:27.260Z,24.20
2024-01-06T13:51:54.284Z,20.20
2024-01-06T13:54:22.675Z,20.70
2024-01-06T13:56:49.549Z,17.80
2024-01-06T13:59:18.005Z,17.00
2024-01-06T14:01:46.336Z,16.60
2024-01-06T14:04:14.388Z,17.00
2024-01-06T14:06:41.502Z,16.60
2024-01-06T14:09:08.367Z,17.60
2024-01-06T14:11:35.537Z,21.50
2024-01-06T14:14:03.233Z,21.00
2024-01-06T14:16:30.154Z,16.20
2024-01-06T14:18:57.663Z,15.10
2024-01-06T14:21:24.646Z,15.40
2024-01-06T14:23:51.529Z,15.40
2024-01-06T14:26:21.396Z,14.60
2024-01-06T14:28:49.664Z,15.60
2024-01-06T14:31:16.949Z,15.90
2024-01-06T14:33:44.230Z,15.40
2024-01-06T14:36:11.242Z,14.90
2024-01-06T14:38:38.341Z,14.90
2024-01-06T14:41:05.234Z,14.10
2024-01-06T14:43:32.170Z,13.20
2024-01-06T14:45:59.204Z,13.80
2024-01-06T14:48:26.461Z,12.70
2024-01-06T14:50:53.516Z,13.90
2024-01-06T14:53:22.094Z,14.50
2024-01-06T14:55:50.452Z,14.00
2024-01-06T14:58:17.763Z,13.60
2024-01-06T15:00:44.702Z,12.80
2024-01-06T15:03:12.510Z,13.90
2024-01-06T15:05:39.582Z,14.10
2024-01-06T15:08:06.686Z,13.10
2024-01-06T15:10:34.689Z,12.70
2024-01-06T15:13:01.808Z,13.60
2024-01-06T15:15:28.947Z,12.80
2024-01-06T15:17:55.998Z,13.00
2024-01-06T15:20:24.361Z,13.20
2024-01-06T15:22:51.438Z,11.50
2024-01-06T15:25:19.424Z,12.60
2024-01-06T15:27:46.451Z,10.60
2024-01-06T15:30:13.815Z,13.20
2024-01-06T15:32:43.154Z,12.50
2024-01-06T15:35:11.360Z,12.30
2024-01-06T15:37:38.487Z,12.20
2024-01-06T15:40:06.149Z,12.70
2024-01-06T15:42:33.674Z,11.60
2024-01-06T15:45:00.764Z,12.30
2024-01-06T15:47:27.636Z,11.20
2024-01-06T15:49:54.632Z,11.30
2024-01-06T15:52:22.967Z,10.80
2024-01-06T15:54:50.923Z,11.00
2024-01-06T15:57:18.102Z,10.90
2024-01-06T15:59:45.310Z,11.00
2024-01-06T16:02:12.459Z,9.50
2024-01-06T16:04:39.488Z,10.60
2024-01-06T16:07:07.452Z,11.00
2024-01-06T16:09:34.446Z,10.20
2024-01-06T16:12:01.333Z,10.70
2024-01-06T16:14:31.375Z,10.40
2024-01-06T16:17:01.371Z,10.40
2024-01-06T16:19:29.444Z,10.90
2024-01-06T16:22:07.402Z,11.70
2024-01-06T16:24:42.226Z,14.40
2024-01-06T16:27:09.423Z,17.40
2024-01-06T16:29:37.269Z,14.40
2024-01-06T16:32:04.817Z,14.30
2024-01-06T16:34:32.250Z,16.40
2024-01-06T16:36:59.186Z,15.50
2024-01-06T16:39:28.121Z,16.40
2024-01-06T16:41:58.582Z,14.80
2024-01-06T16:44:25.936Z,14.00
2024-01-06T16:46:52.894Z,13.10
2024-01-06T16:49:22.589Z,12.60
2024-01-06T16:51:49.623Z,13.00
2024-01-06T16:54:32.251Z,12.10
2024-01-06T16:57:01.450Z,12.30
2024-01-06T16:59:28.792Z,12.40
2024-01-06T17:01:55.928Z,13.00
2024-01-06T17:04:23.170Z,12.20
2024-01-06T17:06:50.172Z,13.50
2024-01-06T17:09:17.107Z,14.40
2024-01-06T17:11:43.969Z,14.50
2024-01-06T17:14:13.007Z,15.30
2024-01-06T17:16:40.061Z,15.90
2024-01-06T17:19:07.145Z,16.10
2024-01-06T17:21:34.436Z,15.40
2024-01-06T17:24:01.408Z,13.30
2024-01-06T17:26:28.740Z,14.10
2024-01-06T17:28:56.281Z,14.70
2024-01-06T17:31:24.920Z,12.80
2024-01-06T17:33:52.027Z,12.00
2024-01-06T17:36:19.169Z,11.20
2024-01-06T17:38:46.147Z,11.80
2024-01-06T17:41:14.217Z,12.50
2024-01-06T17:43:42.333Z,11.50
2024-01-06T17:46:09.979Z,12.10
2024-01-06T17:48:37.418Z,11.40
2024-01-06T17:51:05.627Z,10.10
2024-01-06T17:53:32.451Z,10.40
2024-01-06T17:55:59.452Z,10.00
2024-01-06T17:58:27.553Z,10.60
2024-01-06T18:00:54.704Z,10.20
2024-01-06T18:03:21.804Z,10.60
2024-01-06T18:05:48.782Z,9.80
2024-01-06T18:08:15.856Z,9.20
2024-01-06T18:10:43.884Z,9.90
2024-01-06T18:13:10.856Z,9.60
2024-01-06T18:15:37.769Z,8.70
2024-01-06T18:18:05.242Z,9.10
2024-01-06T18:20:33.242Z,9.00
2024-01-06T18:23:00.657Z,8.10
2024-01-06T18:25:27.627Z,7.90
2024-01-06T18:27:54.526Z,6.90
2024-01-06T18:30:21.722Z,8.40
2024-01-06T18:32:48.889Z,7.90
2024-01-06T18:35:16.290Z,8.70
2024-01-06T18:37:43.265Z,8.60
2024-01-06T18:40:11.083Z,9.30
2024-01-06T18:42:37.993Z,9.50
2024-01-06T18:45:05.313Z,8.50
2024-01-06T18:47:32.557Z,11.20
2024-01-06T18:50:00.783Z,12.00
2024-01-06T18:52:29.092Z,11.30
2024-01-06T18:54:56.317Z,9.50
2024-01-06T18:57:25.510Z,10.00
2024-01-06T18:59:53.075Z,9.00
2024-01-06T19:02:20.583Z,8.80
2024-01-06T19:04:50.893Z,8.00
2024-01-06T19:07:19.752Z,9.20
2024-01-06T19:09:47.760Z,9.70
2024-01-06T19:12:15.756Z,8.60
2024-01-06T19:14:42.735Z,7.90
2024-01-06T19:17:09.984Z,8.60
2024-01-06T19:19:42.877Z,8.60
2024-01-06T19:22:09.989Z,8.60
2024-01-06T19:24:43.097Z,9.30
2024-01-06T19:27:12.490Z,9.60
2024-01-06T19:29:47.791Z,10.90
2024-01-06T19:32:16.406Z,8.70
2024-01-06T19:34:43.937Z,9.30
2024-01-06T19:37:11.142Z,11.20
2024-01-06T19:39:39.677Z,17.50
2024-01-06T19:42:08.150Z,21.90
2024-01-06T19:44:35.437Z,21.60
2024-01-06T19:47:02.544Z,56.60
2024-01-06T19:49:30.089Z,13.70
2024-01-06T19:51:57.668Z,21.90
2024-01-06T19:54:25.020Z,12.90
2024-01-06T19:57:09.166Z,38.00
2024-01-06T19:59:37.183Z,29.60
2024-01-06T20:02:04.417Z,38.90
2024-01-06T20:04:40.017Z,30.50
2024-01-06T20:07:08.756Z,22.70
2024-01-06T20:09:36.434Z,12.10
2024-01-06T20:12:05.232Z,12.90
2024-01-06T20:14:36.295Z,12.40
2024-01-06T20:17:10.498Z,11.70
2024-01-06T20:19:39.305Z,12.10
2024-01-06T20:22:07.807Z,11.20
2024-01-06T20:24:35.601Z,10.70
2024-01-06T20:27:05.016Z,10.10
2024-01-06T20:29:32.118Z,11.50
2024-01-06T20:31:59.260Z,11.20
2024-01-06T20:34:29.910Z,11.10
2024-01-06T20:36:57.962Z,10.70
2024-01-06T20:39:27.949Z,10.00
2024-01-06T20:41:55.834Z,10.40
2024-01-06T20:44:23.991Z,9.50
2024-01-06T20:46:51.887Z,10.20
2024-01-06T20:49:21.960Z,10.00
2024-01-06T20:51:49.096Z,9.80
2024-01-06T20:54:16.418Z,8.70
2024-01-06T20:56:50.723Z,9.50
2024-01-06T20:59:18.753Z,9.10
2024-01-06T21:01:46.317Z,9.30
2024-01-06T21:04:14.062Z,9.70
2024-01-06T21:06:42.500Z,10.10
2024-01-06T21:09:10.570Z,9.80
2024-01-06T21:11:39.216Z,9.30
2024-01-06T21:14:07.636Z,9.70
2024-01-06T21:16:34.529Z,9.40
2024-01-06T21:19:01.528Z,9.40
2024-01-06T21:21:28.521Z,9.90
2024-01-06T21:23:55.423Z,9.80
2024-01-06T21:26:25.675Z,10.10
2024-01-06T21:28:54.616Z,11.00
2024-01-06T21:31:24.861Z,11.20
2024-01-06T21:33:51.864Z,11.50
2024-01-06T21:36:19.861Z,10.30
2024-01-06T21:38:47.780Z,10.30
2024-01-06T21:41:14.753Z,10.10
2024-01-06T21:43:42.203Z,9.80
2024-01-06T21:46:09.620Z,11.10
2024-01-06T21:48:37.286Z,11.90
2024-01-06T21:51:05.241Z,11.70
2024-01-06T21:53:34.307Z,11.00
2024-01-06T21:56:01.238Z,10.30
2024-01-06T21:58:28.140Z,10.50
2024-01-06T22:00:57.823Z,10.00
2024-01-06T22:03:24.844Z,10.30
2024-01-06T22:05:52.938Z,10.30
2024-01-06T22:08:19.901Z,10.00
2024-01-06T22:10:48.049Z,9.80
2024-01-06T22:13:16.089Z,10.20
2024-01-06T22:15:52.569Z,10.20
2024-01-06T22:18:19.896Z,11.40
2024-01-06T22:20:46.830Z,11.30
2024-01-06T22:23:13.752Z,11.20
2024-01-06T22:25:40.580Z,10.20
2024-01-06T22:28:11.494Z,10.50
2024-01-06T22:30:39.381Z,11.00
2024-01-06T22:33:07.357Z,10.40
2024-01-06T22:35:34.338Z,9.20
2024-01-06T22:38:01.273Z,11.90
2024-01-06T22:40:28.125Z,11.00
2024-01-06T22:42:55.096Z,10.50
2024-01-06T22:45:24.170Z,8.60
2024-01-06T22:47:51.354Z,8.80
2024-01-06T22:50:18.356Z,8.80
2024-01-06T22:52:45.145Z,9.20
2024-01-06T22:55:12.024Z,8.20
2024-01-06T22:57:39.050Z,9.60
2024-01-06T23:00:27.344Z,9.20
2024-01-06T23:02:55.400Z,8.90
2024-01-06T23:05:22.200Z,8.60
2024-01-06T23:07:49.205Z,8.80
2024-01-06T23:10:16.757Z,8.80
2024-01-06T23:12:43.768Z,8.70
2024-01-06T23:15:11.604Z,8.50
2024-01-06T23:17:38.555Z,8.20
2024-01-06T23:20:06.235Z,8.20
2024-01-06T23:22:34.801Z,9.00
2024-01-06T23:25:01.721Z,9.60
2024-01-06T23:27:29.002Z,9.80
2024-01-06T23:29:56.066Z,9.60
2024-01-06T23:32:23.078Z,9.20
2024-01-06T23:34:50.057Z,8.70
2024-01-06T23:37:17.138Z,9.70
2024-01-06T23:39:44.075Z,10.00
2024-01-06T23:42:11.413Z,9.60
2024-01-06T23:44:38.345Z,9.70
2024-01-06T23:47:05.183Z,9.70
2024-01-06T23:49:32.159Z,8.60
2024-01-06T23:51:59.158Z,11.40
2024-01-06T23:54:26.112Z,9.00
2024-01-06T23:56:53.017Z,9.30
2024-01-06T23:59:20.852Z,9.70
